Time;durP1;ratioP1;P1;durP2;ratioP2;P2;SDS_P1;SDS_P2;PMS_P1;PMS_P2;Temp;Humidity;BMP_temperature;BMP_pressure;BME280_temperature;BME280_humidity;BME280_pressure;Samples;Min_cycle;Max_cycle;Signal;HPM_P1;HPM_P2
2023/07/10 00:00:56;;;;;;;;;4.50;4.50;;;;;25.22;52.79;101697.00;4961784;28;45498;-67
2023/07/10 00:03:21;;;;;;;;;6.25;5.00;;;;;25.23;52.66;101708.84;4960376;28;46112;-66
2023/07/10 00:05:46;;;;;;;;;5.00;3.50;;;;;25.17;53.12;101696.50;4967813;28;46097;-67
2023/07/10 00:08:12;;;;;;;;;4.00;4.00;;;;;25.14;53.08;101700.38;4960258;28;45747;-66
2023/07/10 00:10:37;;;;;;;;;4.25;4.00;;;;;25.17;52.84;101718.34;4960142;28;45394;-66
2023/07/10 00:13:03;;;;;;;;;5.25;5.25;;;;;25.13;52.42;101715.00;4960373;28;45441;-66
2023/07/10 00:15:29;;;;;;;;;10.25;8.00;;;;;25.08;51.82;101705.44;4966537;28;45443;-67
2023/07/10 00:17:54;;;;;;;;;13.75;13.75;;;;;25.07;52.04;101717.34;4951360;28;45442;-66
2023/07/10 00:20:22;;;;;;;;;19.25;17.25;;;;;25.03;51.41;101710.41;4956286;28;45536;-66
2023/07/10 00:22:48;;;;;;;;;21.00;20.00;;;;;25.06;51.88;101719.22;4959651;28;45358;-66
2023/07/10 00:25:17;;;;;;;;;24.75;19.75;;;;;25.04;50.96;101723.06;4948371;28;45544;-66
2023/07/10 00:27:49;;;;;;;;;35.00;29.25;;;;;25.00;51.00;101721.56;4963625;28;45392;-67
2023/07/10 00:30:26;;;;;;;;;36.00;29.50;;;;;24.99;50.86;101725.28;4954237;28;45461;-66
2023/07/10 00:32:54;;;;;;;;;41.00;32.75;;;;;24.91;50.46;101718.56;4961103;28;46391;-66
2023/07/10 00:35:26;;;;;;;;;44.25;34.50;;;;;24.91;50.96;101725.88;4958329;28;45788;-66
2023/07/10 00:38:01;;;;;;;;;41.25;33.25;;;;;24.89;50.87;101719.66;4959097;28;45325;-67
2023/07/10 00:40:32;;;;;;;;;42.25;34.50;;;;;24.88;50.92;101726.13;4959673;28;45389;-66
2023/07/10 00:43:06;;;;;;;;;40.25;30.25;;;;;24.87;51.70;101727.09;4959434;28;45527;-66
2023/07/10 00:45:32;;;;;;;;;26.75;21.25;;;;;24.86;51.29;101720.78;4959788;28;45546;-67
2023/07/10 00:48:06;;;;;;;;;32.25;28.50;;;;;24.76;51.28;101711.56;4959774;28;45378;-67
2023/07/10 00:50:45;;;;;;;;;31.75;27.25;;;;;24.82;51.05;101724.72;4952564;28;45339;-67
2023/07/10 00:53:21;;;;;;;;;32.75;28.75;;;;;24.80;51.71;101729.44;4946995;28;46245;-67
2023/07/10 00:55:47;;;;;;;;;29.50;28.50;;;;;24.78;51.53;101718.63;4959338;28;45677;-67
2023/07/10 00:58:22;;;;;;;;;29.25;26.00;;;;;24.76;51.22;101717.88;4958773;28;45333;-67
2023/07/10 01:01:00;;;;;;;;;37.50;32.00;;;;;24.73;51.72;101718.13;4957568;28;45398;-66
2023/07/10 01:03:25;;;;;;;;;43.25;33.75;;;;;24.72;51.74;101719.09;4959204;28;45480;-67
2023/07/10 01:05:51;;;;;;;;;39.00;33.00;;;;;24.71;51.09;101720.09;4965170;28;55330;-66
2023/07/10 01:08:16;;;;;;;;;40.00;32.25;;;;;24.65;50.89;101709.66;4959692;28;45345;-67
2023/07/10 01:10:41;;;;;;;;;35.75;30.75;;;;;24.65;50.86;101709.66;4959333;28;45538;-66
2023/07/10 01:13:06;;;;;;;;;33.50;30.25;;;;;24.64;51.37;101716.09;4958950;28;61289;-66
2023/07/10 01:15:32;;;;;;;;;30.00;22.75;;;;;24.62;50.56;101706.28;4958801;28;47643;-67
2023/07/10 01:17:58;;;;;;;;;25.50;20.25;;;;;24.55;50.86;101703.16;4949761;28;52331;-66
2023/07/10 01:20:34;;;;;;;;;5.00;2.00;;;;;24.55;51.29;101706.75;4956027;28;45604;-66
2023/07/10 01:23:01;;;;;;;;;17.00;15.25;;;;;24.52;50.91;101714.28;4958129;28;46281;-66
2023/07/10 01:25:31;;;;;;;;;17.00;15.50;;;;;24.53;51.42;101710.56;4958311;28;45407;-67
2023/07/10 01:27:57;;;;;;;;;18.50;15.25;;;;;24.49;51.33;101704.47;4964856;28;45330;-67
2023/07/10 01:30:34;;;;;;;;;14.50;13.00;;;;;24.51;51.02;101704.34;4959863;28;56535;-66
2023/07/10 01:33:01;;;;;;;;;12.25;11.25;;;;;24.50;51.05;101710.78;4953384;28;45457;-66
2023/07/10 01:35:30;;;;;;;;;10.75;10.50;;;;;24.47;51.23;101708.28;4960376;28;45489;-66
2023/07/10 01:37:55;;;;;;;;;14.00;11.00;;;;;24.48;51.01;101712.78;4944512;28;45354;-66
2023/07/10 01:40:29;;;;;;;;;11.00;11.00;;;;;24.44;50.97;101713.97;4962297;28;45470;-66
2023/07/10 01:42:59;;;;;;;;;10.75;9.00;;;;;24.40;50.85;101713.34;4961535;28;46190;-66
2023/07/10 01:45:26;;;;;;;;;12.00;9.50;;;;;24.39;50.91;101717.94;4962336;28;45345;-66
2023/07/10 01:47:53;;;;;;;;;9.50;8.25;;;;;24.38;51.20;101715.31;4962220;28;45610;-67
2023/07/10 01:50:20;;;;;;;;;11.25;9.50;;;;;24.35;51.62;101716.41;4963145;28;45527;-66
2023/07/10 01:52:46;;;;;;;;;10.25;9.25;;;;;24.33;51.83;101720.25;4960399;28;45436;-66
2023/07/10 01:55:14;;;;;;;;;7.25;6.25;;;;;24.32;52.37;101715.78;4967426;28;45519;-66
2023/07/10 01:57:40;;;;;;;;;8.00;6.00;;;;;24.32;53.17;101721.22;4962286;28;45507;-66
2023/07/10 02:00:06;;;;;;;;;6.25;4.75;;;;;24.28;53.31;101723.31;4962251;28;45623;-67
2023/07/10 02:02:31;;;;;;;;;5.50;4.50;;;;;24.27;54.22;101718.84;4961335;28;45406;-66
2023/07/10 02:04:56;;;;;;;;;4.50;4.00;;;;;24.27;54.29;101727.03;4966260;28;45441;-66
2023/07/10 02:07:21;;;;;;;;;4.00;4.00;;;;;24.19;54.45;101713.97;4969000;28;48659;-66
2023/07/10 02:09:47;;;;;;;;;3.25;3.25;;;;;24.25;54.48;101719.97;4961668;28;45465;-66
2023/07/10 02:12:12;;;;;;;;;6.25;5.25;;;;;24.23;54.92;101722.81;4962021;28;45995;-66
2023/07/10 02:14:39;;;;;;;;;3.75;3.75;;;;;24.24;54.72;101730.00;4962153;28;45575;-66
2023/07/10 02:17:04;;;;;;;;;5.50;5.50;;;;;24.21;54.69;101724.78;4961562;28;45389;-66
2023/07/10 02:19:30;;;;;;;;;3.50;3.25;;;;;24.19;55.03;101724.91;4962065;28;45475;-66
2023/07/10 02:21:55;;;;;;;;;3.00;3.00;;;;;24.18;55.39;101725.88;4961391;28;55508;-66
2023/07/10 02:24:20;;;;;;;;;5.25;5.00;;;;;24.18;55.06;101728.59;4962086;28;45467;-66
2023/07/10 02:26:46;;;;;;;;;4.00;3.00;;;;;24.14;55.56;101718.03;4963964;28;54823;-66
2023/07/10 02:29:11;;;;;;;;;0.75;0.00;;;;;24.16;55.15;101724.25;4965195;28;45708;-66
2023/07/10 02:31:36;;;;;;;;;2.75;2.75;;;;;24.14;55.28;101728.94;4961496;28;48114;-66
2023/07/10 02:34:02;;;;;;;;;3.75;2.00;;;;;24.13;55.23;101727.22;4961575;28;58343;-66
2023/07/10 02:36:29;;;;;;;;;4.00;4.00;;;;;24.14;55.79;101731.66;4963883;28;47213;-66
2023/07/10 02:38:55;;;;;;;;;3.00;3.00;;;;;24.10;55.49;101724.69;4959157;28;45346;-66
2023/07/10 02:41:20;;;;;;;;;6.25;4.75;;;;;24.13;55.39;101738.13;4960965;28;46094;-66
2023/07/10 02:43:45;;;;;;;;;5.75;5.00;;;;;24.13;55.54;101735.38;4961217;28;46197;-66
2023/07/10 02:46:10;;;;;;;;;5.00;4.50;;;;;24.12;55.60;101736.38;4967125;28;46545;-66
2023/07/10 02:48:37;;;;;;;;;4.00;4.00;;;;;24.11;55.54;101735.50;4959942;28;45638;-66
2023/07/10 02:51:02;;;;;;;;;4.75;4.75;;;;;24.00;55.50;101724.50;4961607;28;45385;-67
2023/07/10 02:53:28;;;;;;;;;3.00;3.00;;;;;24.06;56.07;101729.53;4957700;28;45313;-67
2023/07/10 02:55:53;;;;;;;;;4.75;4.50;;;;;24.07;56.11;101744.88;4963163;28;51182;-67
2023/07/10 02:58:18;;;;;;;;;3.25;3.25;;;;;23.94;55.94;101723.13;4961163;28;45443;-66
2023/07/10 03:00:44;;;;;;;;;5.25;4.00;;;;;24.00;56.21;101733.56;4960886;28;49635;-66
2023/07/10 03:03:09;;;;;;;;;5.50;3.50;;;;;23.99;56.22;101745.47;4961185;28;45437;-67
2023/07/10 03:05:34;;;;;;;;;7.00;4.25;;;;;23.90;55.93;101737.06;4965451;28;45396;-67
2023/07/10 03:07:59;;;;;;;;;4.25;4.25;;;;;23.96;55.95;101748.41;4961266;28;45442;-67
2023/07/10 03:10:25;;;;;;;;;3.75;3.75;;;;;23.94;56.17;101758.56;4959784;28;47328;-67
2023/07/10 03:12:50;;;;;;;;;5.25;5.25;;;;;23.90;56.40;101746.13;4960307;28;51587;-67
2023/07/10 03:15:16;;;;;;;;;5.00;4.25;;;;;23.88;56.17;101747.22;4968785;28;45338;-66
2023/07/10 03:17:42;;;;;;;;;4.25;4.25;;;;;23.90;56.32;101761.63;4960058;28;45328;-66
2023/07/10 03:20:08;;;;;;;;;4.00;4.00;;;;;23.86;56.45;101752.78;4960944;28;45429;-66
2023/07/10 03:22:34;;;;;;;;;4.25;3.00;;;;;23.86;56.49;101759.09;4960941;28;45385;-66
2023/07/10 03:24:59;;;;;;;;;3.50;3.50;;;;;23.82;56.63;101752.16;4949169;28;47661;-67
2023/07/10 03:27:25;;;;;;;;;4.25;4.00;;;;;23.80;57.00;101761.38;4956662;28;45249;-66
2023/07/10 03:29:50;;;;;;;;;5.00;5.00;;;;;23.80;57.06;101764.97;4961444;28;45952;-67
2023/07/10 03:32:16;;;;;;;;;2.00;2.00;;;;;23.79;56.94;101770.53;4960944;28;45463;-66
2023/07/10 03:34:41;;;;;;;;;4.25;3.75;;;;;23.74;57.10;101768.16;4960758;28;45447;-66
2023/07/10 03:37:07;;;;;;;;;5.50;4.00;;;;;23.68;57.63;101768.59;4966912;28;45598;-66
2023/07/10 03:39:32;;;;;;;;;4.00;4.00;;;;;23.63;57.25;101763.47;4959697;28;45814;-66
2023/07/10 03:41:58;;;;;;;;;6.00;4.75;;;;;23.61;57.52;101768.16;4960420;28;45410;-67
2023/07/10 03:44:23;;;;;;;;;3.75;3.50;;;;;23.57;57.70;101769.38;4959576;28;52684;-66
2023/07/10 03:46:49;;;;;;;;;7.00;5.50;;;;;23.55;57.80;101770.44;4965380;28;45599;-67
2023/07/10 03:49:14;;;;;;;;;4.75;4.75;;;;;23.51;57.86;101764.34;4958960;28;45423;-66
2023/07/10 03:51:39;;;;;;;;;5.00;5.00;;;;;23.55;57.66;101782.22;4960605;28;48299;-67
2023/07/10 03:54:07;;;;;;;;;4.50;4.50;;;;;23.54;57.84;101775.03;4959597;28;45373;-66
2023/07/10 03:56:33;;;;;;;;;6.00;6.00;;;;;23.54;57.74;101779.59;4961482;28;45530;-67
2023/07/10 03:58:58;;;;;;;;;4.00;4.00;;;;;23.51;57.96;101774.38;4956858;28;46308;-66
2023/07/10 04:01:24;;;;;;;;;5.75;4.75;;;;;23.49;58.06;101777.22;4960206;28;47125;-66
2023/07/10 04:03:49;;;;;;;;;5.00;5.00;;;;;23.53;58.15;101780.59;4951904;28;45425;-66
2023/07/10 04:06:18;;;;;;;;;4.50;4.00;;;;;23.52;57.73;101787.00;4973518;28;45523;-66
2023/07/10 04:08:45;;;;;;;;;4.50;4.50;;;;;23.50;58.12;101784.38;4961589;28;45384;-67
2023/07/10 04:11:16;;;;;;;;;4.00;4.00;;;;;23.52;58.04;101790.59;4960144;28;45453;-66
2023/07/10 04:13:42;;;;;;;;;3.00;3.00;;;;;23.51;58.02;101788.00;4959491;28;45683;-66
2023/07/10 04:16:20;;;;;;;;;5.00;4.00;;;;;23.52;57.96;101800.63;4959885;28;45572;-66
2023/07/10 04:18:47;;;;;;;;;5.00;5.00;;;;;23.49;58.35;101799.00;4959855;28;46225;-67
2023/07/10 04:21:21;;;;;;;;;6.75;6.75;;;;;23.45;58.08;101802.91;4959947;28;45358;-67
2023/07/10 04:23:47;;;;;;;;;3.00;3.00;;;;;23.39;58.30;101795.16;4960865;28;45435;-66
2023/07/10 04:26:18;;;;;;;;;5.50;5.25;;;;;23.41;58.80;101807.72;4962242;28;45895;-66
2023/07/10 04:28:47;;;;;;;;;6.25;6.25;;;;;23.35;58.95;101802.69;4960689;28;45542;-66
2023/07/10 04:31:13;;;;;;;;;6.00;5.00;;;;;23.35;58.89;101808.13;4959852;28;45521;-66
2023/07/10 04:33:38;;;;;;;;;5.00;5.00;;;;;23.31;58.77;101809.34;4942626;28;45479;-66
2023/07/10 04:36:04;;;;;;;;;7.75;4.00;;;;;23.29;58.98;101806.72;4958892;28;46829;-66
2023/07/10 04:38:29;;;;;;;;;4.00;4.00;;;;;23.28;58.99;101813.13;4961564;28;45804;-66
2023/07/10 04:41:00;;;;;;;;;5.00;5.00;;;;;23.26;59.26;101812.38;4961304;28;45484;-66
2023/07/10 04:43:27;;;;;;;;;3.75;3.75;;;;;23.29;58.73;101819.47;4957894;28;45357;-67
2023/07/10 04:45:54;;;;;;;;;4.75;4.25;;;;;23.29;58.91;101823.06;4958772;28;45634;-66
2023/07/10 04:48:21;;;;;;;;;4.00;4.00;;;;;23.31;59.15;101823.81;4958767;28;45538;-66
2023/07/10 04:50:48;;;;;;;;;4.00;4.00;;;;;23.30;59.10;101824.81;4961006;28;45516;-66
2023/07/10 04:53:14;;;;;;;;;5.50;4.00;;;;;23.31;59.24;101820.25;4959894;28;45353;-67
2023/07/10 04:55:39;;;;;;;;;5.50;4.00;;;;;23.33;59.04;101825.56;4958488;28;45389;-66
2023/07/10 04:58:04;;;;;;;;;5.25;5.00;;;;;23.33;59.28;101828.31;4959168;28;45373;-66
2023/07/10 05:00:31;;;;;;;;;4.00;4.00;;;;;23.30;59.54;101818.47;4959423;28;47582;-66
2023/07/10 05:02:56;;;;;;;;;5.00;4.00;;;;;23.28;59.74;101821.31;4958778;28;45366;-66
2023/07/10 05:05:21;;;;;;;;;4.00;3.00;;;;;23.34;59.43;101828.19;4965928;28;45332;-67
2023/07/10 05:07:47;;;;;;;;;2.00;2.00;;;;;23.34;59.46;101827.31;4958827;28;47096;-66
2023/07/10 05:10:12;;;;;;;;;3.75;3.75;;;;;23.35;59.24;101826.34;4963929;28;45509;-66
2023/07/10 05:12:37;;;;;;;;;3.00;3.00;;;;;23.35;59.16;101823.63;4962372;28;45435;-66
2023/07/10 05:15:03;;;;;;;;;4.00;2.00;;;;;23.32;59.38;101816.50;4962597;28;45351;-66
2023/07/10 05:17:28;;;;;;;;;4.00;3.50;;;;;23.36;58.97;101825.38;4965295;28;45655;-67
2023/07/10 05:19:54;;;;;;;;;4.00;4.00;;;;;23.34;59.04;101820.03;4965835;28;45287;-66
2023/07/10 05:22:19;;;;;;;;;3.00;3.00;;;;;23.34;58.95;101824.59;4962703;28;45416;-66
2023/07/10 05:24:44;;;;;;;;;3.00;3.00;;;;;23.34;59.11;101825.47;4961983;28;45369;-66
2023/07/10 05:27:09;;;;;;;;;5.00;4.00;;;;;23.30;58.98;101819.38;4965082;28;45971;-67
2023/07/10 05:29:35;;;;;;;;;5.75;4.50;;;;;23.36;58.32;101831.69;4965924;28;45299;-66
2023/07/10 05:32:00;;;;;;;;;5.75;2.75;;;;;23.39;58.37;101833.31;4960927;28;45294;-66
2023/07/10 05:34:26;;;;;;;;;4.00;3.50;;;;;23.38;58.31;101826.13;4959355;28;45436;-67
2023/07/10 05:36:52;;;;;;;;;3.00;3.00;;;;;23.38;58.54;101828.84;4961078;28;45513;-66
2023/07/10 05:39:17;;;;;;;;;4.00;2.00;;;;;23.39;58.12;101825.13;4961812;28;45416;-66
2023/07/10 05:41:42;;;;;;;;;4.00;2.00;;;;;23.35;58.50;101818.16;4967057;28;45458;-66
2023/07/10 05:44:08;;;;;;;;;3.25;3.00;;;;;23.38;58.05;101824.28;4961396;28;51685;-67
2023/07/10 05:46:33;;;;;;;;;2.00;2.00;;;;;23.41;58.31;101820.47;4964516;28;59683;-67
2023/07/10 05:48:58;;;;;;;;;2.00;2.00;;;;;23.39;58.23;101820.56;4960413;28;45398;-67
2023/07/10 05:51:23;;;;;;;;;3.00;3.00;;;;;23.39;57.77;101814.22;4964914;28;45569;-67
2023/07/10 05:53:49;;;;;;;;;3.25;3.00;;;;;23.40;57.83;101816.00;4961105;28;45627;-67
2023/07/10 05:56:14;;;;;;;;;2.00;2.00;;;;;23.46;57.80;101823.75;4961715;28;45489;-66
2023/07/10 05:58:42;;;;;;;;;5.50;4.00;;;;;23.47;57.86;101820.91;4961257;28;45358;-67
2023/07/10 06:01:10;;;;;;;;;2.00;2.00;;;;;23.49;57.73;101834.44;4961511;28;45493;-67
2023/07/10 06:03:36;;;;;;;;;3.50;3.00;;;;;23.51;57.75;101834.34;4961108;28;45471;-66
2023/07/10 06:06:04;;;;;;;;;3.75;2.25;;;;;23.51;58.05;101829.75;4957977;28;45991;-67
2023/07/10 06:08:30;;;;;;;;;4.00;3.00;;;;;23.42;57.35;101814.91;4961081;28;45586;-66
2023/07/10 06:10:56;;;;;;;;;3.50;2.50;;;;;23.50;57.88;101830.72;4959497;28;45382;-66
2023/07/10 06:13:22;;;;;;;;;2.00;2.00;;;;;23.52;57.52;101828.75;4962768;28;45422;-65
2023/07/10 06:15:50;;;;;;;;;2.75;2.75;;;;;23.53;57.51;101827.78;4953980;28;46135;-66
2023/07/10 06:18:15;;;;;;;;;2.75;2.75;;;;;23.55;57.28;101827.66;4959815;28;45334;-66
2023/07/10 06:20:41;;;;;;;;;3.50;2.25;;;;;23.52;57.29;101825.16;4962284;28;45522;-66
2023/07/10 06:23:06;;;;;;;;;5.00;2.50;;;;;23.55;56.93;101825.81;4959203;28;45430;-68
2023/07/10 06:25:32;;;;;;;;;3.25;3.25;;;;;23.57;57.25;101817.53;4963080;28;45503;-66
2023/07/10 06:27:57;;;;;;;;;2.25;2.25;;;;;23.60;57.25;101833.66;4966013;28;45471;-66
2023/07/10 06:30:22;;;;;;;;;5.00;3.00;;;;;23.60;57.00;101822.78;4961439;28;45386;-66
2023/07/10 06:32:48;;;;;;;;;2.00;2.00;;;;;23.58;57.25;101822.00;4959253;28;47270;-66
2023/07/10 06:35:14;;;;;;;;;2.00;2.00;;;;;23.58;57.18;101822.00;4940695;28;48695;-66
2023/07/10 06:37:40;;;;;;;;;2.00;2.00;;;;;23.59;56.90;101819.19;4957335;28;45438;-66
2023/07/10 06:40:14;;;;;;;;;3.75;2.75;;;;;23.58;56.83;101809.25;4962978;28;45330;-67
2023/07/10 06:42:42;;;;;;;;;2.00;2.00;;;;;23.65;56.85;101817.88;4963718;28;45400;-67
2023/07/10 06:45:09;;;;;;;;;4.00;4.00;;;;;23.64;57.25;101818.88;4971120;28;45522;-66
2023/07/10 06:47:39;;;;;;;;;3.50;3.50;;;;;23.65;57.19;101821.44;4960306;28;45265;-67
2023/07/10 06:50:06;;;;;;;;;2.75;2.75;;;;;23.64;56.96;101817.00;4966115;28;45461;-66
2023/07/10 06:52:32;;;;;;;;;4.75;4.50;;;;;23.68;57.15;101823.97;4958659;28;45303;-66
2023/07/10 06:54:57;;;;;;;;;2.75;2.75;;;;;23.67;56.89;101811.34;4960807;28;46041;-66
2023/07/10 06:57:23;;;;;;;;;3.00;3.00;;;;;23.68;56.71;101821.25;4954831;28;45510;-66
2023/07/10 06:59:48;;;;;;;;;4.00;2.75;;;;;23.64;56.89;101814.28;4960261;28;45591;-66
2023/07/10 07:02:13;;;;;;;;;2.00;2.00;;;;;23.63;56.88;101817.97;4958810;28;45329;-66
2023/07/10 07:04:40;;;;;;;;;3.50;2.00;;;;;23.60;56.92;101815.47;4963085;28;45315;-66
2023/07/10 07:07:06;;;;;;;;;2.50;2.50;;;;;23.62;56.85;101824.41;4965250;28;45391;-67
2023/07/10 07:09:31;;;;;;;;;2.00;2.00;;;;;23.63;56.97;101820.69;4960113;28;45471;-66
2023/07/10 07:11:58;;;;;;;;;2.50;2.50;;;;;23.66;57.19;101822.34;4959502;28;45549;-66
2023/07/10 07:14:24;;;;;;;;;4.25;3.25;;;;;23.64;57.20;101814.28;4962105;28;45895;-66
2023/07/10 07:16:49;;;;;;;;;3.00;3.00;;;;;23.67;56.53;101818.63;4955778;28;45763;-66
2023/07/10 07:19:15;;;;;;;;;4.25;2.25;;;;;23.74;56.75;101819.94;4958392;28;45722;-66
2023/07/10 07:21:40;;;;;;;;;2.25;2.25;;;;;23.80;57.04;101816.75;4958213;28;45710;-66
2023/07/10 07:24:05;;;;;;;;;5.00;4.00;;;;;23.77;56.94;101807.94;4956277;28;46007;-65
2023/07/10 07:26:31;;;;;;;;;3.50;3.00;;;;;23.79;56.88;101800.50;4956325;28;45359;-65
2023/07/10 07:28:56;;;;;;;;;4.25;4.25;;;;;23.86;56.99;101813.63;4959639;28;45567;-65
2023/07/10 07:31:21;;;;;;;;;6.75;3.00;;;;;23.86;57.00;101819.09;4942059;28;45553;-64
2023/07/10 07:33:48;;;;;;;;;4.00;4.00;;;;;23.90;56.59;101814.28;4961853;28;47096;-65
2023/07/10 07:36:14;;;;;;;;;2.50;2.50;;;;;23.85;56.76;101800.13;4961701;28;45670;-64
2023/07/10 07:38:39;;;;;;;;;3.75;3.75;;;;;23.92;56.69;101817.78;4959301;28;45314;-64
2023/07/10 07:41:06;;;;;;;;;3.00;3.00;;;;;23.90;56.15;101807.97;4959270;28;45508;-65
2023/07/10 07:43:32;;;;;;;;;2.50;2.50;;;;;23.91;56.65;101804.28;4959287;28;46871;-65
2023/07/10 07:45:57;;;;;;;;;4.00;4.00;;;;;23.98;56.52;101816.47;4956376;28;45505;-65
2023/07/10 07:48:25;;;;;;;;;4.50;3.00;;;;;23.99;56.62;101807.28;4964908;28;45540;-65
2023/07/10 07:51:02;;;;;;;;;2.00;2.00;;;;;24.03;55.94;101804.22;4962883;28;45507;-69
2023/07/10 07:53:29;;;;;;;;;2.50;2.50;;;;;24.04;55.42;101797.81;4950770;28;48040;-67
2023/07/10 07:55:55;;;;;;;;;3.00;2.00;;;;;24.12;55.45;101804.56;4941956;28;45744;-69
2023/07/10 07:58:23;;;;;;;;;1.00;1.00;;;;;24.11;55.00;101800.97;4957344;28;45519;-72
2023/07/10 08:00:50;;;;;;;;;1.00;1.00;;;;;24.15;53.85;101801.59;4957251;28;45675;-73
2023/07/10 08:03:15;;;;;;;;;2.50;1.00;;;;;24.17;52.93;101791.44;4940175;28;46570;-71
2023/07/10 08:05:41;;;;;;;;;2.25;1.25;;;;;24.16;53.34;101781.53;4957748;28;45515;-72
2023/07/10 08:08:09;;;;;;;;;1.25;1.00;;;;;24.27;53.01;101784.31;4958471;28;45724;-71
2023/07/10 08:10:36;;;;;;;;;3.00;1.50;;;;;24.20;52.92;101766.69;4956694;28;45443;-71
2023/07/10 08:13:03;;;;;;;;;2.25;1.50;;;;;24.36;52.04;101794.56;4956936;28;45568;-71
2023/07/10 08:15:29;;;;;;;;;2.25;1.00;;;;;24.34;52.02;101774.72;4960914;28;45448;-71
2023/07/10 08:17:55;;;;;;;;;2.50;1.25;;;;;24.47;51.93;101795.63;4957203;28;45631;-71
2023/07/10 08:20:20;;;;;;;;;2.50;1.00;;;;;24.40;52.06;101768.78;4958904;28;45507;-72
2023/07/10 08:22:45;;;;;;;;;1.75;1.75;;;;;24.44;51.88;101768.56;4959018;28;46090;-72
2023/07/10 08:25:11;;;;;;;;;1.00;1.00;;;;;24.62;51.80;101794.50;4960018;28;45502;-71
2023/07/10 08:27:36;;;;;;;;;2.75;2.00;;;;;24.49;51.93;101763.63;4955255;28;46130;-72
2023/07/10 08:30:02;;;;;;;;;1.75;1.25;;;;;24.66;51.24;101786.94;4963144;28;45479;-71
2023/07/10 08:32:27;;;;;;;;;2.00;1.75;;;;;24.55;51.04;101758.59;4957099;28;47449;-72
2023/07/10 08:34:53;;;;;;;;;0.75;0.75;;;;;24.63;51.55;101762.63;4960584;28;45309;-71
2023/07/10 08:37:18;;;;;;;;;1.00;1.00;;;;;24.84;50.93;101790.13;4965244;28;45335;-73
2023/07/10 08:39:47;;;;;;;;;1.00;1.00;;;;;24.83;50.21;101780.22;4938501;28;45532;-72
2023/07/10 08:42:22;;;;;;;;;2.00;1.25;;;;;24.76;50.04;101760.72;4957526;28;46144;-71
2023/07/10 08:44:50;;;;;;;;;0.25;0.00;;;;;24.88;50.30;101778.00;4972075;28;45891;-71
2023/07/10 08:47:21;;;;;;;;;2.75;1.50;;;;;24.97;50.18;101780.00;4958550;28;45392;-72
2023/07/10 08:50:10;;;;;;;;;2.75;1.25;;;;;24.93;50.13;101768.47;4961352;28;45761;-72
2023/07/10 08:53:03;;;;;;;;;1.00;1.00;;;;;24.94;49.35;101762.03;4949375;28;45993;-72
2023/07/10 08:55:45;;;;;;;;;2.00;1.00;;;;;25.13;49.00;101787.91;4951710;28;45877;-70
2023/07/10 08:58:18;;;;;;;;;2.25;1.75;;;;;25.10;49.20;101772.59;4946150;28;45571;-71
2023/07/10 09:00:45;;;;;;;;;3.00;1.00;;;;;25.20;49.05;101782.84;4952280;28;46406;-71
2023/07/10 09:03:35;;;;;;;;;2.50;1.00;;;;;25.25;48.80;101788.81;4952803;28;46234;-71
2023/07/10 09:06:03;;;;;;;;;1.00;1.00;;;;;25.28;48.61;101788.59;4950507;28;46900;-71
2023/07/10 09:08:31;;;;;;;;;0.00;0.00;;;;;25.17;48.02;101772.13;4938030;28;45545;-71
2023/07/10 09:11:02;;;;;;;;;1.25;1.25;;;;;25.26;48.66;101774.13;4953659;28;45547;-71
2023/07/10 09:13:40;;;;;;;;;3.00;1.50;;;;;25.24;47.55;101765.19;4937392;28;47301;-71
2023/07/10 09:16:20;;;;;;;;;1.00;1.00;;;;;25.40;47.81;101792.22;4956986;28;45554;-71
2023/07/10 09:19:01;;;;;;;;;2.00;2.00;;;;;25.39;47.67;101785.88;4956480;28;45440;-72
2023/07/10 09:21:31;;;;;;;;;1.50;1.50;;;;;25.29;48.35;101760.28;4942048;28;45567;-71
2023/07/10 09:23:57;;;;;;;;;5.00;2.00;;;;;25.47;47.73;101791.59;4958056;28;45426;-71
2023/07/10 09:26:32;;;;;;;;;1.00;1.00;;;;;25.41;46.94;101772.97;4956738;28;45682;-71
2023/07/10 09:29:09;;;;;;;;;1.25;1.25;;;;;25.55;46.86;101785.53;4957515;28;45634;-71
2023/07/10 09:31:50;;;;;;;;;1.25;1.25;;;;;25.59;46.39;101791.63;4957103;28;45611;-71
2023/07/10 09:34:20;;;;;;;;;1.00;1.00;;;;;25.57;47.17;101778.09;4954369;28;45568;-71
2023/07/10 09:36:53;;;;;;;;;2.00;2.00;;;;;25.56;46.76;101768.16;4933140;28;45639;-71
2023/07/10 09:39:18;;;;;;;;;0.75;0.75;;;;;25.61;46.26;101771.41;4939962;28;45431;-71
2023/07/10 09:41:46;;;;;;;;;1.75;0.00;;;;;25.59;46.07;101761.56;4959151;28;45650;-71
2023/07/10 09:44:16;;;;;;;;;17.00;10.25;;;;;25.77;46.02;101784.69;4956777;28;45801;-71
2023/07/10 09:46:41;;;;;;;;;2.50;1.00;;;;;25.71;46.02;101771.53;4936886;28;45786;-71
2023/07/10 09:49:14;;;;;;;;;1.75;0.75;;;;;25.74;45.58;101774.00;4954157;28;45504;-72
2023/07/10 09:51:57;;;;;;;;;1.00;1.00;;;;;25.82;45.64;101770.66;4953748;28;45756;-71
2023/07/10 09:54:23;;;;;;;;;4.25;2.00;;;;;25.79;45.07;101768.16;4956627;28;45417;-72
2023/07/10 09:56:50;;;;;;;;;1.00;1.00;;;;;25.66;45.22;101750.03;4957015;28;45725;-71
2023/07/10 09:59:21;;;;;;;;;1.00;1.00;;;;;25.84;44.82;101763.19;4956896;28;45540;-71
2023/07/10 10:01:50;;;;;;;;;2.00;1.00;;;;;25.88;44.25;101776.50;4958349;28;45602;-72
2023/07/10 10:04:35;;;;;;;;;1.00;1.00;;;;;25.93;44.44;101786.19;4956379;28;45487;-71
2023/07/10 10:07:04;;;;;;;;;0.00;0.00;;;;;25.95;43.71;101776.00;4957165;28;45546;-73
2023/07/10 10:09:30;;;;;;;;;3.00;0.75;;;;;25.96;43.90;101781.38;4959656;28;45681;-72
2023/07/10 10:12:03;;;;;;;;;0.25;0.25;;;;;25.93;43.52;101770.66;4962811;28;45354;-72
2023/07/10 10:14:43;;;;;;;;;2.00;2.00;;;;;25.88;43.55;101760.09;4961943;28;46008;-71
2023/07/10 10:17:14;;;;;;;;;0.25;0.25;;;;;25.96;43.37;101767.72;4957707;28;45779;-70
2023/07/10 10:19:49;;;;;;;;;2.00;0.00;;;;;25.95;43.06;101765.06;4959168;28;45582;-70
2023/07/10 10:22:15;;;;;;;;;1.00;1.00;;;;;26.04;42.69;101778.91;4953035;28;45429;-71
2023/07/10 10:24:41;;;;;;;;;1.00;1.00;;;;;26.09;43.13;101767.56;4959250;28;45475;-72
2023/07/10 10:27:34;;;;;;;;;1.00;1.00;;;;;26.14;42.96;101758.97;4957227;28;45510;-72
2023/07/10 10:30:16;;;;;;;;;1.00;1.00;;;;;26.16;42.57;101762.44;4974837;28;46771;-72
2023/07/10 10:32:41;;;;;;;;;0.25;0.25;;;;;26.24;43.06;101763.56;4974315;28;45818;-73
2023/07/10 10:35:34;;;;;;;;;1.00;1.00;;;;;26.28;42.35;101763.28;4958143;28;47574;-72
2023/07/10 10:38:19;;;;;;;;;1.75;0.25;;;;;26.26;42.30;101752.47;4938112;28;45491;-72
2023/07/10 10:41:10;;;;;;;;;1.00;1.00;;;;;26.30;41.68;101755.84;4958560;28;45450;-70
2023/07/10 10:43:46;;;;;;;;;2.00;0.25;;;;;26.37;41.23;101762.53;4954178;28;45575;-70
2023/07/10 10:46:34;;;;;;;;;1.00;1.00;;;;;26.21;41.24;101732.81;4959023;28;46617;-72
2023/07/10 10:49:22;;;;;;;;;1.00;1.00;;;;;26.42;41.13;101763.03;4959519;28;45437;-72
2023/07/10 10:52:03;;;;;;;;;1.50;1.00;;;;;26.46;40.99;101758.16;4957224;28;45646;-72
2023/07/10 10:54:38;;;;;;;;;1.25;1.00;;;;;26.47;40.77;101755.28;4955234;28;45603;-72
2023/07/10 10:57:12;;;;;;;;;1.00;1.00;;;;;26.50;40.85;101751.44;4955440;28;45543;-72
2023/07/10 10:59:45;;;;;;;;;3.00;1.25;;;;;26.41;41.09;101748.47;4959069;28;45545;-72
2023/07/10 11:02:32;;;;;;;;;1.75;1.00;;;;;26.51;41.43;101755.91;4965208;28;45441;-72
2023/07/10 11:05:22;;;;;;;;;2.00;1.00;;;;;26.53;41.88;101757.53;4959635;28;45519;-72
2023/07/10 11:07:53;;;;;;;;;1.50;1.00;;;;;26.55;41.46;101747.31;4957048;28;45692;-72
2023/07/10 11:10:37;;;;;;;;;4.50;2.00;;;;;26.56;41.61;101748.16;4956156;28;45633;-71
2023/07/10 11:13:18;;;;;;;;;11.00;8.25;;;;;26.58;42.06;101741.56;4942780;28;46706;-72
2023/07/10 11:15:44;;;;;;;;;1.25;1.25;;;;;26.59;41.92;101726.88;4937325;28;45744;-72
2023/07/10 11:18:14;;;;;;;;;1.00;1.00;;;;;26.66;41.91;101740.94;4960619;28;45404;-72
2023/07/10 11:20:40;;;;;;;;;1.25;1.25;;;;;26.68;40.93;101733.47;4961255;28;45483;-71
2023/07/10 11:23:43;;;;;;;;;1.25;1.25;;;;;26.61;40.55;101711.19;4971866;28;45574;-72
2023/07/10 11:26:18;;;;;;;;;1.00;1.00;;;;;26.83;40.61;101733.16;4959227;28;45397;-72
2023/07/10 11:28:55;;;;;;;;;1.75;1.00;;;;;26.84;40.59;101732.16;4970137;28;47534;-71
2023/07/10 11:31:30;;;;;;;;;1.50;1.00;;;;;26.89;40.23;101728.00;4957879;28;45734;-72